createdAt,value
2018-03-08T00:00:19.706Z,81.97
2018-03-08T00:01:24.642Z,88.40
2018-03-08T00:02:31.349Z,98.43
2018-03-08T00:03:36.883Z,100.90
2018-03-08T00:04:41.885Z,94.70
2018-03-08T00:05:46.089Z,92.07
2018-03-08T00:06:51.059Z,93.93
2018-03-08T00:07:55.237Z,87.00
2018-03-08T00:09:01.366Z,87.30
2018-03-08T00:10:07.132Z,79.53
2018-03-08T00:11:12.526Z,89.80
2018-03-08T00:12:17.607Z,86.13
2018-03-08T00:13:21.803Z,85.23
2018-03-08T00:14:27.315Z,83.60
2018-03-08T00:15:32.739Z,87.87
2018-03-08T00:16:37.773Z,90.87
2018-03-08T00:17:42.523Z,79.43
2018-03-08T00:18:47.491Z,93.00
2018-03-08T00:19:51.738Z,85.97
2018-03-08T00:20:57.374Z,85.22
2018-03-08T00:22:03.627Z,79.20
2018-03-08T00:23:09.280Z,84.87
2018-03-08T00:24:13.789Z,81.80
2018-03-08T00:25:18.816Z,76.82
2018-03-08T00:26:23.024Z,83.15
2018-03-08T00:27:30.707Z,80.93
2018-03-08T00:28:35.939Z,82.93
2018-03-08T00:29:42.127Z,85.20
2018-03-08T00:30:46.360Z,79.67
2018-03-08T00:31:50.522Z,85.73
2018-03-08T00:32:54.761Z,78.60
2018-03-08T00:34:02.277Z,76.85
2018-03-08T00:35:07.487Z,73.03
2018-03-08T00:36:12.893Z,58.80
2018-03-08T00:37:17.054Z,65.00
2018-03-08T00:38:21.247Z,60.40
2018-03-08T00:39:25.555Z,56.40
2018-03-08T00:40:33.759Z,62.10
2018-03-08T00:41:39.959Z,53.03
2018-03-08T00:42:44.665Z,66.00
2018-03-08T00:43:48.906Z,59.77
2018-03-08T00:44:53.085Z,70.13
2018-03-08T00:45:58.542Z,59.17
2018-03-08T00:47:04.384Z,58.47
2018-03-08T00:48:09.142Z,62.60
2018-03-08T00:49:13.818Z,61.40
2018-03-08T00:50:18.030Z,58.03
2018-03-08T00:51:22.251Z,55.67
2018-03-08T00:52:27.252Z,59.17
2018-03-08T00:53:34.325Z,52.80
2018-03-08T00:54:40.472Z,52.13
2018-03-08T00:55:44.826Z,51.87
2018-03-08T00:56:49.033Z,49.47
2018-03-08T00:57:53.988Z,58.73
2018-03-08T00:58:59.884Z,52.20
2018-03-08T01:00:06.008Z,64.10
2018-03-08T01:01:10.850Z,61.67
2018-03-08T01:02:15.887Z,63.00
2018-03-08T01:03:20.052Z,66.43
2018-03-08T01:04:25.004Z,58.23
2018-03-08T01:05:32.171Z,60.87
2018-03-08T01:06:37.992Z,66.17
2018-03-08T01:07:42.471Z,66.47
2018-03-08T01:08:46.682Z,68.17
2018-03-08T01:09:50.914Z,66.23
2018-03-08T01:10:55.116Z,55.47
2018-03-08T01:12:01.061Z,60.00
2018-03-08T01:13:07.355Z,62.30
2018-03-08T01:14:13.368Z,64.00
2018-03-08T01:15:17.613Z,58.50
2018-03-08T01:16:21.813Z,61.83
2018-03-08T01:17:27.125Z,56.67
2018-03-08T01:18:32.858Z,58.60
2018-03-08T01:19:38.785Z,70.60
2018-03-08T01:20:44.431Z,63.83
2018-03-08T01:21:48.624Z,49.97
2018-03-08T01:22:53.558Z,61.85
2018-03-08T01:24:02.055Z,57.17
2018-03-08T01:25:07.690Z,57.88
2018-03-08T01:26:14.152Z,56.83
2018-03-08T01:27:18.345Z,55.72
2018-03-08T01:28:22.539Z,54.45
2018-03-08T01:29:28.625Z,59.03
2018-03-08T01:30:35.955Z,58.83
2018-03-08T01:31:42.053Z,55.57
2018-03-08T01:32:47.065Z,56.37
2018-03-08T01:33:51.253Z,53.80
2018-03-08T01:34:55.793Z,51.17
2018-03-08T01:36:02.582Z,50.60
2018-03-08T01:37:10.840Z,47.23
2018-03-08T01:38:15.299Z,44.20
2018-03-08T01:39:19.529Z,49.40
2018-03-08T01:40:23.703Z,46.67
2018-03-08T01:41:31.062Z,48.80
2018-03-08T01:42:38.486Z,43.33
2018-03-08T01:43:43.744Z,49.33
2018-03-08T01:44:47.984Z,47.47
2018-03-08T01:45:52.919Z,46.70
2018-03-08T01:46:58.741Z,49.77
2018-03-08T01:48:05.788Z,48.70
2018-03-08T01:49:11.695Z,46.47
2018-03-08T01:50:15.977Z,40.10
2018-03-08T01:51:20.156Z,46.13
2018-03-08T01:52:24.314Z,48.73
2018-03-08T01:53:29.857Z,48.25
2018-03-08T01:54:35.440Z,49.17
2018-03-08T01:55:42.006Z,56.40
2018-03-08T01:56:46.243Z,38.57
2018-03-08T01:57:51.257Z,48.80
2018-03-08T01:58:55.435Z,39.70
2018-03-08T02:00:01.064Z,47.60
2018-03-08T02:01:07.687Z,49.30
2018-03-08T02:02:12.499Z,44.72
2018-03-08T02:03:16.781Z,43.40
2018-03-08T02:04:20.982Z,46.57
2018-03-08T02:05:25.177Z,35.80
2018-03-08T02:06:32.472Z,39.60
2018-03-08T02:07:37.322Z,40.50
2018-03-08T02:08:42.200Z,45.10
2018-03-08T02:09:46.423Z,43.80
2018-03-08T02:10:51.367Z,38.50
2018-03-08T02:11:56.372Z,34.07
2018-03-08T02:13:03.876Z,34.17
2018-03-08T02:14:10.732Z,36.50
2018-03-08T02:15:15.551Z,29.27
2018-03-08T02:16:19.794Z,33.27
2018-03-08T02:17:24.756Z,32.55
2018-03-08T02:18:33.036Z,30.23
2018-03-08T02:19:38.183Z,36.70
2018-03-08T02:20:43.965Z,30.80
2018-03-08T02:21:48.183Z,32.17
2018-03-08T02:22:52.459Z,28.17
2018-03-08T02:23:57.539Z,34.65
2018-03-08T02:25:03.994Z,31.87
2018-03-08T02:26:10.399Z,31.67
2018-03-08T02:27:14.997Z,28.50
2018-03-08T02:28:19.343Z,30.20
2018-03-08T02:29:23.549Z,35.47
2018-03-08T02:30:30.933Z,26.00
2018-03-08T02:31:36.361Z,31.27
2018-03-08T02:32:41.660Z,33.90
2018-03-08T02:33:46.631Z,30.40
2018-03-08T02:34:50.893Z,28.63
2018-03-08T02:35:55.114Z,34.13
2018-03-08T02:37:01.076Z,34.40
2018-03-08T02:38:06.501Z,30.30
2018-03-08T02:39:11.540Z,35.23
2018-03-08T02:40:15.843Z,39.17
2018-03-08T02:41:20.033Z,34.70
2018-03-08T02:42:24.236Z,32.80
2018-03-08T02:43:30.324Z,35.07
2018-03-08T02:44:35.518Z,38.67
2018-03-08T02:45:41.056Z,32.72
2018-03-08T02:46:46.104Z,29.53
2018-03-08T02:47:50.298Z,34.45
2018-03-08T02:48:54.493Z,32.70
2018-03-08T02:49:59.800Z,29.40
2018-03-08T02:51:06.931Z,42.07
2018-03-08T02:52:11.840Z,37.05
2018-03-08T02:53:16.144Z,32.35
2018-03-08T02:54:20.328Z,32.73
2018-03-08T02:55:25.350Z,30.03
2018-03-08T02:56:33.275Z,36.67
2018-03-08T02:57:38.399Z,34.27
2018-03-08T02:58:43.098Z,33.85
2018-03-08T02:59:48.073Z,34.87
2018-03-08T03:00:52.263Z,33.83
2018-03-08T03:01:57.828Z,40.03
2018-03-08T03:03:04.047Z,32.65
2018-03-08T03:04:09.258Z,40.63
2018-03-08T03:05:14.071Z,37.83
2018-03-08T03:06:18.294Z,40.50
2018-03-08T03:07:22.476Z,33.97
2018-03-08T03:08:26.708Z,41.70
2018-03-08T03:09:33.430Z,33.75
2018-03-08T03:10:39.286Z,37.65
2018-03-08T03:11:43.846Z,41.70
2018-03-08T03:12:48.043Z,32.63
2018-03-08T03:13:52.234Z,37.17
2018-03-08T03:14:56.989Z,38.70
2018-03-08T03:16:02.392Z,44.55
2018-03-08T03:17:07.873Z,45.58
2018-03-08T03:18:12.441Z,47.97
2018-03-08T03:19:16.626Z,53.15
2018-03-08T03:20:21.558Z,50.30
2018-03-08T03:21:26.843Z,48.97
2018-03-08T03:22:33.059Z,53.83
2018-03-08T03:23:40.780Z,52.92
2018-03-08T03:24:45.110Z,56.47
2018-03-08T03:25:49.290Z,68.20
2018-03-08T03:26:53.525Z,56.50
2018-03-08T03:28:00.538Z,61.63
2018-03-08T03:29:05.756Z,58.53
2018-03-08T03:30:10.638Z,63.10
2018-03-08T03:31:15.024Z,59.03
2018-03-08T03:32:19.190Z,61.90
2018-03-08T03:33:23.374Z,73.47
2018-03-08T03:34:29.480Z,70.62
2018-03-08T03:35:35.111Z,69.87
2018-03-08T03:36:40.368Z,65.80
2018-03-08T03:37:44.886Z,64.00
2018-03-08T03:38:49.079Z,70.33
2018-03-08T03:39:53.689Z,70.20
2018-03-08T03:41:00.439Z,70.30
2018-03-08T03:42:06.737Z,65.87
2018-03-08T03:43:12.886Z,66.57
2018-03-08T03:44:17.086Z,62.53
2018-03-08T03:45:21.272Z,64.95
2018-03-08T03:46:25.459Z,70.85
2018-03-08T03:47:31.095Z,79.67
2018-03-08T03:48:36.838Z,75.87
2018-03-08T03:49:42.672Z,82.00
2018-03-08T03:50:46.861Z,67.63
2018-03-08T03:51:51.066Z,75.65
2018-03-08T03:52:55.398Z,75.93
2018-03-08T03:54:04.709Z,84.00
2018-03-08T03:55:10.472Z,80.93
2018-03-08T03:56:15.056Z,97.50
2018-03-08T03:57:19.236Z,78.57
2018-03-08T03:58:24.201Z,84.70
2018-03-08T03:59:30.101Z,86.43
2018-03-08T04:00:36.174Z,83.50
2018-03-08T04:01:41.689Z,80.70
2018-03-08T04:02:45.950Z,83.13
2018-03-08T04:03:50.138Z,91.70
2018-03-08T04:04:54.355Z,83.78
2018-03-08T04:06:01.707Z,80.30
2018-03-08T04:07:07.854Z,80.50
2018-03-08T04:08:12.996Z,81.18
2018-03-08T04:09:17.194Z,88.67
2018-03-08T04:10:21.389Z,81.82
2018-03-08T04:11:25.665Z,81.35
2018-03-08T04:12:31.183Z,91.95
2018-03-08T04:13:36.489Z,91.20
2018-03-08T04:14:42.095Z,85.07
2018-03-08T04:15:46.272Z,81.20
2018-03-08T04:16:50.457Z,81.73
2018-03-08T04:17:54.692Z,100.45
2018-03-08T04:19:00.677Z,94.03
2018-03-08T04:20:05.917Z,83.85
2018-03-08T04:21:11.757Z,83.53
2018-03-08T04:22:16.028Z,85.62
2018-03-08T04:23:20.242Z,100.10
2018-03-08T04:24:24.491Z,80.10
2018-03-08T04:25:29.887Z,89.70
2018-03-08T04:26:35.252Z,87.10
2018-03-08T04:27:40.349Z,89.50
2018-03-08T04:28:44.688Z,94.33
2018-03-08T04:29:48.961Z,89.17
2018-03-08T04:30:53.153Z,95.82
2018-03-08T04:31:59.114Z,86.07
2018-03-08T04:33:04.464Z,97.33
2018-03-08T04:34:09.703Z,87.43
2018-03-08T04:35:14.206Z,84.80
2018-03-08T04:36:18.389Z,81.10
2018-03-08T04:37:22.619Z,79.15
2018-03-08T04:38:28.227Z,85.80
2018-03-08T04:39:33.565Z,78.57
2018-03-08T04:40:38.643Z,86.60
2018-03-08T04:41:44.641Z,85.05
2018-03-08T04:42:48.910Z,85.55
2018-03-08T04:43:53.088Z,79.57
2018-03-08T04:44:58.511Z,71.73
2018-03-08T04:46:04.838Z,78.37
2018-03-08T04:47:10.172Z,87.32
2018-03-08T04:48:14.696Z,79.62
2018-03-08T04:49:18.897Z,83.63
2018-03-08T04:50:23.075Z,91.10
2018-03-08T04:51:29.065Z,88.40
2018-03-08T04:52:35.235Z,86.00
2018-03-08T04:53:41.700Z,79.43
2018-03-08T04:54:47.070Z,79.28
2018-03-08T04:55:51.264Z,102.82
2018-03-08T04:56:55.484Z,86.97
2018-03-08T04:58:04.924Z,77.95
2018-03-08T04:59:11.022Z,91.32
2018-03-08T05:00:15.592Z,85.03
2018-03-08T05:01:19.781Z,87.43
2018-03-08T05:02:24.803Z,82.83
2018-03-08T05:03:31.188Z,100.33
2018-03-08T05:04:37.014Z,72.70
2018-03-08T05:05:42.113Z,92.03
2018-03-08T05:06:46.287Z,75.93
2018-03-08T05:07:50.510Z,78.78
2018-03-08T05:08:54.695Z,73.93
2018-03-08T05:10:00.276Z,81.97
2018-03-08T05:11:05.646Z,79.47
2018-03-08T05:12:11.448Z,82.70
2018-03-08T05:13:16.544Z,69.30
2018-03-08T05:14:21.501Z,76.57
2018-03-08T05:15:28.325Z,73.40
2018-03-08T05:16:35.081Z,71.00
2018-03-08T05:17:40.970Z,78.03
2018-03-08T05:18:45.360Z,69.47
2018-03-08T05:19:49.544Z,70.40
2018-03-08T05:20:53.753Z,79.00
2018-03-08T05:22:00.763Z,78.80
2018-03-08T05:23:06.854Z,76.03
2018-03-08T05:24:11.735Z,69.20
2018-03-08T05:25:15.937Z,81.70
2018-03-08T05:26:20.134Z,69.70
2018-03-08T05:27:24.741Z,90.15
2018-03-08T05:28:31.744Z,73.32
2018-03-08T05:29:37.606Z,73.40
2018-03-08T05:30:42.812Z,76.32
2018-03-08T05:31:47.038Z,77.22
2018-03-08T05:32:51.769Z,66.13
2018-03-08T05:33:56.858Z,69.85
2018-03-08T05:35:03.834Z,72.77
2018-03-08T05:36:10.214Z,82.65
2018-03-08T05:37:14.720Z,69.90
2018-03-08T05:38:18.898Z,74.53
2018-03-08T05:39:23.857Z,84.37
2018-03-08T05:40:32.669Z,70.83
2018-03-08T05:41:38.564Z,71.53
2018-03-08T05:43:00.300Z,75.03
2018-03-08T05:44:05.274Z,76.10
2018-03-08T05:45:10.347Z,81.25
2018-03-08T05:46:14.834Z,75.60
2018-03-08T05:47:19.082Z,71.03
2018-03-08T05:48:23.308Z,77.03
2018-03-08T05:49:29.633Z,67.17
2018-03-08T05:50:35.820Z,77.47
2018-03-08T05:51:41.750Z,68.95
2018-03-08T05:52:45.943Z,79.10
2018-03-08T05:53:50.183Z,74.90
2018-03-08T05:54:54.445Z,75.50
2018-03-08T05:56:02.126Z,83.90
2018-03-08T05:57:07.679Z,75.93
2018-03-08T05:58:12.757Z,75.03
2018-03-08T05:59:17.812Z,70.80
2018-03-08T06:00:22.025Z,76.40
2018-03-08T06:01:26.838Z,81.28
2018-03-08T06:02:34.829Z,83.43
2018-03-08T06:03:40.781Z,77.03
2018-03-08T06:04:45.944Z,71.15
2018-03-08T06:05:50.140Z,79.40
2018-03-08T06:06:54.315Z,74.60
2018-03-08T06:08:01.436Z,67.82
2018-03-08T06:09:09.403Z,79.05
2018-03-08T06:10:14.958Z,69.12
2018-03-08T06:11:19.162Z,70.23
2018-03-08T06:12:23.331Z,65.15
2018-03-08T06:13:31.522Z,75.07
2018-03-08T06:14:38.367Z,71.20
2018-03-08T06:15:43.386Z,65.75
2018-03-08T06:16:47.618Z,72.00
2018-03-08T06:17:52.585Z,67.50
2018-03-08T06:18:58.866Z,71.50
2018-03-08T06:20:06.084Z,69.07
2018-03-08T06:21:11.125Z,70.97
2018-03-08T06:22:16.071Z,63.78
2018-03-08T06:23:20.246Z,82.18
2018-03-08T06:24:24.426Z,64.53
2018-03-08T06:25:31.996Z,61.25
2018-03-08T06:26:37.604Z,65.47
2018-03-08T06:27:42.860Z,66.87
2018-03-08T06:28:47.081Z,59.45
2018-03-08T06:29:51.314Z,63.20
2018-03-08T06:30:55.652Z,60.20
2018-03-08T06:32:05.014Z,71.80
2018-03-08T06:33:11.918Z,62.92
2018-03-08T06:34:16.119Z,61.47
2018-03-08T06:35:20.314Z,57.73
2018-03-08T06:36:25.328Z,56.42
2018-03-08T06:37:33.976Z,57.88
2018-03-08T06:38:39.512Z,53.33
2018-03-08T06:39:44.136Z,52.17
2018-03-08T06:40:48.317Z,63.00
2018-03-08T06:41:53.260Z,63.17
2018-03-08T06:43:00.642Z,67.03
2018-03-08T06:44:07.152Z,57.37
2018-03-08T06:45:12.481Z,61.25
2018-03-08T06:46:16.779Z,53.60
2018-03-08T06:47:20.948Z,55.88
2018-03-08T06:48:25.301Z,57.92
2018-03-08T06:49:34.014Z,54.72
2018-03-08T06:50:39.866Z,56.47
2018-03-08T06:51:44.336Z,56.67
2018-03-08T06:52:48.558Z,65.53
2018-03-08T06:53:53.499Z,54.63
2018-03-08T06:55:00.770Z,48.33
2018-03-08T06:56:05.957Z,51.20
2018-03-08T06:57:12.231Z,49.08
2018-03-08T06:58:16.439Z,53.87
2018-03-08T06:59:20.615Z,59.28
2018-03-08T07:00:24.788Z,51.25
2018-03-08T07:01:33.611Z,51.67
2018-03-08T07:02:42.524Z,49.35
2018-03-08T07:03:46.751Z,64.30
2018-03-08T07:04:51.729Z,57.30
2018-03-08T07:05:57.594Z,65.75
2018-03-08T07:07:03.617Z,52.92
2018-03-08T07:08:09.659Z,60.75
2018-03-08T07:09:14.453Z,52.28
2018-03-08T07:10:19.394Z,55.28
2018-03-08T07:11:24.337Z,44.65
2018-03-08T07:12:30.453Z,60.50
2018-03-08T07:13:35.841Z,56.92
2018-03-08T07:14:41.470Z,47.62
2018-03-08T07:15:45.961Z,51.97
2018-03-08T07:16:50.141Z,55.65
2018-03-08T07:17:54.330Z,48.90
2018-03-08T07:19:01.719Z,49.90
2018-03-08T07:20:08.407Z,53.87
2018-03-08T07:21:13.587Z,50.75
2018-03-08T07:22:17.785Z,50.60
2018-03-08T07:23:22.728Z,66.07
2018-03-08T07:24:31.980Z,59.40
2018-03-08T07:25:40.987Z,47.20
2018-03-08T07:26:45.344Z,48.72
2018-03-08T07:27:49.534Z,47.50
2018-03-08T07:28:53.710Z,39.50
2018-03-08T07:30:01.722Z,58.83
2018-03-08T07:31:07.323Z,53.13
2018-03-08T07:32:13.803Z,38.40
2018-03-08T07:33:18.753Z,63.15
2018-03-08T07:34:23.702Z,39.80
2018-03-08T07:35:31.373Z,36.37
2018-03-08T07:36:37.191Z,42.10
2018-03-08T07:37:43.839Z,44.13
2018-03-08T07:38:48.106Z,42.63
2018-03-08T07:39:52.297Z,40.92
2018-03-08T07:41:01.311Z,41.50
2018-03-08T07:42:06.638Z,37.80
2018-03-08T07:43:12.152Z,28.10
2018-03-08T07:44:17.171Z,29.83
2018-03-08T07:45:21.367Z,46.50
2018-03-08T07:46:25.573Z,34.47
2018-03-08T07:47:32.913Z,34.92
2018-03-08T07:48:39.184Z,35.65
2018-03-08T07:49:43.919Z,35.28
2018-03-08T07:50:48.126Z,38.97
2018-03-08T07:51:52.298Z,41.40
2018-03-08T07:52:57.603Z,31.30
2018-03-08T07:54:04.018Z,26.10
2018-03-08T07:55:09.664Z,31.27
2018-03-08T07:56:14.312Z,29.30
2018-03-08T07:57:18.490Z,25.10
2018-03-08T07:58:22.656Z,28.20
2018-03-08T07:59:28.149Z,26.87
2018-03-08T08:00:34.401Z,28.23
2018-03-08T08:01:39.530Z,26.75
2018-03-08T08:02:43.942Z,27.33
2018-03-08T08:03:48.131Z,27.20
2018-03-08T08:05:10.421Z,24.77
2018-03-08T08:08:16.051Z,18.00
2018-03-08T08:09:20.239Z,22.52
2018-03-08T08:10:24.391Z,19.33
2018-03-08T08:11:29.788Z,18.03
2018-03-08T08:12:34.288Z,17.58
2018-03-08T08:13:38.451Z,19.23
2018-03-08T08:14:43.733Z,20.40
2018-03-08T08:15:49.224Z,16.23
2018-03-08T08:16:54.357Z,15.07
2018-03-08T08:17:59.702Z,17.10
2018-03-08T08:19:04.666Z,20.17
2018-03-08T08:20:08.850Z,20.83
2018-03-08T08:21:18.239Z,16.98
2018-03-08T08:22:26.020Z,26.60
2018-03-08T08:23:31.093Z,17.57
2018-03-08T08:24:36.035Z,15.27
2018-03-08T08:25:40.263Z,16.57
2018-03-08T08:26:46.651Z,19.93
2018-03-08T08:27:53.089Z,14.40
2018-03-08T08:28:58.249Z,24.85
2018-03-08T08:30:02.438Z,13.20
2018-03-08T08:31:06.657Z,25.20
2018-03-08T08:32:10.870Z,23.93
2018-03-08T08:33:18.118Z,25.07
2018-03-08T08:34:23.296Z,16.17
2018-03-08T08:35:28.802Z,17.17
2018-03-08T08:36:33.000Z,14.10
2018-03-08T08:37:37.968Z,15.67
2018-03-08T08:38:42.824Z,16.13
2018-03-08T08:39:48.694Z,13.50
2018-03-08T08:40:54.568Z,10.20
2018-03-08T08:41:59.941Z,15.07
2018-03-08T08:43:04.152Z,15.20
2018-03-08T08:44:08.313Z,17.37
2018-03-08T08:45:15.639Z,17.33
2018-03-08T08:46:22.631Z,20.73
2018-03-08T08:47:27.918Z,15.30
2018-03-08T08:48:32.896Z,24.63
2018-03-08T08:49:37.065Z,9.80
2018-03-08T08:50:41.273Z,18.97
2018-03-08T08:51:47.668Z,15.80
2018-03-08T08:52:53.473Z,10.50
2018-03-08T08:53:58.765Z,15.17
2018-03-08T08:55:03.728Z,17.37
2018-03-08T08:56:07.972Z,11.23
2018-03-08T08:57:12.965Z,13.30
2018-03-08T08:58:18.380Z,15.32
2018-03-08T08:59:24.131Z,15.70
2018-03-08T09:00:28.972Z,17.20
2018-03-08T09:01:33.209Z,27.47
2018-03-08T09:02:37.426Z,11.70
2018-03-08T09:03:42.162Z,16.87
2018-03-08T09:04:48.116Z,15.20
2018-03-08T09:05:53.093Z,12.20
2018-03-08T09:06:58.054Z,17.53
2018-03-08T09:08:02.367Z,17.53
2018-03-08T09:09:06.566Z,18.70
2018-03-08T09:10:12.391Z,13.17
2018-03-08T09:11:18.450Z,16.00
2018-03-08T09:12:23.710Z,18.20
2018-03-08T09:13:28.652Z,18.60
2018-03-08T09:14:32.836Z,12.00
2018-03-08T09:15:37.847Z,20.00
2018-03-08T09:16:42.486Z,11.17
2018-03-08T09:17:47.947Z,11.77
2018-03-08T09:18:53.002Z,14.93
2018-03-08T09:19:58.200Z,17.40
2018-03-08T09:21:03.160Z,11.13
2018-03-08T09:22:07.371Z,15.50
2018-03-08T09:23:11.823Z,15.10
2018-03-08T09:24:18.323Z,14.13
2018-03-08T09:25:23.988Z,13.97
2018-03-08T09:26:28.696Z,18.60
2018-03-08T09:27:32.875Z,13.93
2018-03-08T09:28:37.093Z,14.20
2018-03-08T09:29:41.651Z,17.63
2018-03-08T09:30:48.830Z,13.33
2018-03-08T09:31:55.699Z,16.50
2018-03-08T09:33:00.104Z,17.20
2018-03-08T09:34:04.303Z,15.03
2018-03-08T09:35:09.217Z,12.90
2018-03-08T09:36:15.239Z,15.93
2018-03-08T09:37:20.994Z,15.70
2018-03-08T09:38:26.121Z,15.83
2018-03-08T09:39:30.505Z,13.53
2018-03-08T09:40:34.695Z,12.57
2018-03-08T09:41:39.644Z,17.70
2018-03-08T09:42:45.936Z,14.73
2018-03-08T09:43:50.906Z,17.53
2018-03-08T09:44:56.738Z,18.53
2018-03-08T09:46:01.110Z,12.37
2018-03-08T09:47:05.302Z,10.90
2018-03-08T09:48:09.473Z,12.87
2018-03-08T09:49:15.816Z,12.13
2018-03-08T09:50:22.061Z,14.83
2018-03-08T09:51:28.912Z,11.30
2018-03-08T09:52:33.100Z,15.47
2018-03-08T09:53:38.018Z,11.93
2018-03-08T09:54:42.969Z,14.13
2018-03-08T09:55:51.014Z,12.83
2018-03-08T09:56:56.796Z,13.13
2018-03-08T09:58:01.822Z,9.90
2018-03-08T09:59:06.818Z,16.30
2018-03-08T10:00:10.996Z,13.43
2018-03-08T10:01:17.195Z,13.90
2018-03-08T10:02:22.653Z,9.37
2018-03-08T10:03:28.383Z,20.33
2018-03-08T10:04:32.578Z,9.03
2018-03-08T10:05:36.774Z,11.57
2018-03-08T10:06:41.059Z,10.83
2018-03-08T10:07:46.457Z,11.90
2018-03-08T10:08:52.827Z,9.60
2018-03-08T10:09:57.774Z,10.47
2018-03-08T10:11:01.968Z,9.43
2018-03-08T10:12:06.175Z,12.33
2018-03-08T10:13:10.368Z,13.53
2018-03-08T10:14:16.929Z,10.67
2018-03-08T10:15:21.604Z,9.03
2018-03-08T10:16:26.524Z,9.47
2018-03-08T10:17:31.515Z,9.30
2018-03-08T10:18:35.735Z,10.20
2018-03-08T10:19:39.972Z,17.00
2018-03-08T10:20:47.629Z,13.83
2018-03-08T10:21:53.088Z,16.70
2018-03-08T10:22:58.499Z,10.30
2018-03-08T10:24:02.704Z,11.03
2018-03-08T10:25:06.920Z,15.17
2018-03-08T10:26:11.220Z,16.30
2018-03-08T10:27:18.304Z,11.20
2018-03-08T10:28:24.493Z,9.53
2018-03-08T10:29:29.281Z,14.53
2018-03-08T10:30:33.475Z,11.00
2018-03-08T10:31:37.656Z,12.00
2018-03-08T10:32:43.835Z,13.97
2018-03-08T10:33:50.754Z,10.93
2018-03-08T10:34:56.096Z,12.03
2018-03-08T10:36:00.694Z,17.27
2018-03-08T10:37:04.883Z,19.90
2018-03-08T10:38:09.062Z,15.70
2018-03-08T10:40:21.527Z,13.13
2018-03-08T10:43:35.875Z,11.33
2018-03-08T10:44:40.068Z,15.10
2018-03-08T10:45:45.043Z,23.50
2018-03-08T10:46:50.361Z,12.13
2018-03-08T10:47:56.803Z,20.03
2018-03-08T10:50:05.390Z,15.80
2018-03-08T10:51:09.557Z,17.33
2018-03-08T10:52:15.040Z,12.00
2018-03-08T10:53:21.244Z,15.27
2018-03-08T10:54:26.155Z,22.13
2018-03-08T10:55:30.485Z,18.37
2018-03-08T10:56:34.655Z,10.40
2018-03-08T10:57:38.875Z,14.97
2018-03-08T10:58:44.864Z,13.30
2018-03-08T10:59:51.060Z,12.23
2018-03-08T11:00:55.999Z,14.90
2018-03-08T11:02:03.240Z,11.63
2018-03-08T11:03:07.447Z,13.90
2018-03-08T11:05:56.673Z,10.93
2018-03-08T11:07:00.852Z,12.93
2018-03-08T11:08:05.065Z,13.37
2018-03-08T11:09:10.196Z,11.13
2018-03-08T11:10:14.460Z,15.67
2018-03-08T11:11:19.074Z,13.07
2018-03-08T11:12:24.868Z,14.93
2018-03-08T11:13:29.452Z,11.87
2018-03-08T11:14:34.465Z,11.03
2018-03-08T11:15:39.419Z,14.47
2018-03-08T11:16:46.640Z,9.90
2018-03-08T11:17:51.598Z,7.20
2018-03-08T11:18:56.673Z,9.50
2018-03-08T11:20:01.106Z,11.70
2018-03-08T11:21:05.279Z,10.50
2018-03-08T11:22:09.517Z,10.70
2018-03-08T11:23:13.780Z,12.23
2018-03-08T11:24:18.836Z,10.70
2018-03-08T11:25:23.950Z,12.63
2018-03-08T11:26:28.725Z,8.53
2018-03-08T11:27:32.887Z,6.50
2018-03-08T11:28:37.849Z,14.37
2018-03-08T11:29:42.984Z,8.53
2018-03-08T11:30:49.807Z,10.67
2018-03-08T11:31:54.956Z,12.70
2018-03-08T11:33:00.039Z,15.90
2018-03-08T11:34:04.225Z,8.33
2018-03-08T11:35:08.383Z,8.00
2018-03-08T11:36:15.287Z,12.23
2018-03-08T11:37:20.800Z,8.07
2018-03-08T11:38:26.527Z,8.00
2018-03-08T11:39:31.891Z,8.53
2018-03-08T11:40:37.176Z,13.93
2018-03-08T11:41:42.168Z,8.70
2018-03-08T11:42:46.905Z,10.50
2018-03-08T11:43:51.113Z,6.73
2018-03-08T11:44:55.345Z,9.43
2018-03-08T11:45:59.542Z,8.57
2018-03-08T11:47:03.788Z,9.80
2018-03-08T11:48:07.979Z,14.73
2018-03-08T11:49:12.899Z,8.67
2018-03-08T11:50:18.627Z,13.70
2018-03-08T11:51:22.861Z,10.63
2018-03-08T11:52:27.094Z,7.47
2018-03-08T11:53:31.289Z,11.20
2018-03-08T11:54:35.515Z,12.43
2018-03-08T11:55:39.784Z,8.83
2018-03-08T11:56:45.231Z,8.50
2018-03-08T11:57:49.943Z,7.13
2018-03-08T11:58:54.124Z,5.07
2018-03-08T11:59:59.538Z,5.93
2018-03-08T12:01:03.722Z,9.87
2018-03-08T12:02:07.875Z,7.50
2018-03-08T12:03:13.579Z,8.70
2018-03-08T12:04:21.800Z,8.60
2018-03-08T12:05:27.997Z,9.00
2018-03-08T12:06:32.971Z,8.60
2018-03-08T12:07:37.136Z,11.33
2018-03-08T12:08:49.519Z,8.37
2018-03-08T12:09:54.012Z,8.37
2018-03-08T12:10:58.457Z,8.97
2018-03-08T12:12:02.652Z,8.63
2018-03-08T12:13:06.887Z,12.10
2018-03-08T12:14:11.401Z,10.93
2018-03-08T12:15:16.461Z,10.23
2018-03-08T12:16:23.348Z,9.27
2018-03-08T12:17:29.045Z,10.17
2018-03-08T12:18:33.411Z,11.93
2018-03-08T12:19:37.584Z,8.43
2018-03-08T12:20:42.678Z,11.23
2018-03-08T12:21:49.221Z,9.77
2018-03-08T12:22:58.742Z,7.67
2018-03-08T12:24:03.686Z,9.30
2018-03-08T12:25:08.904Z,8.07
2018-03-08T12:26:14.941Z,9.80
2018-03-08T12:27:19.523Z,8.80
2018-03-08T12:28:23.714Z,11.87
2018-03-08T12:29:30.045Z,12.00
2018-03-08T12:30:34.968Z,9.90
2018-03-08T12:31:39.910Z,10.73
2018-03-08T12:32:47.600Z,13.00
2018-03-08T12:33:53.389Z,10.00
2018-03-08T12:34:58.048Z,15.50
2018-03-08T12:36:03.047Z,10.37
2018-03-08T12:37:07.221Z,10.27
2018-03-08T12:38:11.946Z,10.20
2018-03-08T12:39:19.840Z,10.23
2018-03-08T12:40:25.258Z,9.13
2018-03-08T12:41:30.338Z,21.60
2018-03-08T12:42:34.510Z,10.83
2018-03-08T12:43:38.681Z,8.80
2018-03-08T12:44:43.757Z,9.57
2018-03-08T12:45:51.346Z,8.07
2018-03-08T12:46:56.546Z,9.07
2018-03-08T12:48:00.858Z,8.63
2018-03-08T12:49:05.787Z,8.57
2018-03-08T12:50:09.977Z,7.90
2018-03-08T12:51:17.352Z,9.77
2018-03-08T12:52:23.310Z,10.27
2018-03-08T12:53:28.752Z,12.40
2018-03-08T12:54:32.966Z,12.80
2018-03-08T12:55:37.133Z,9.10
2018-03-08T12:56:41.575Z,10.13
2018-03-08T12:57:51.390Z,15.63
2018-03-08T12:58:56.834Z,10.30
2018-03-08T13:00:01.942Z,8.20
2018-03-08T13:01:06.949Z,8.30
2018-03-08T13:02:11.123Z,9.87
2018-03-08T13:03:18.475Z,8.97
2018-03-08T13:04:24.557Z,8.47
2018-03-08T13:05:29.492Z,8.07
2018-03-08T13:06:33.699Z,9.50
2018-03-08T13:07:37.886Z,9.63
2018-03-08T13:08:43.177Z,7.43
2018-03-08T13:09:50.896Z,9.97
2018-03-08T13:10:56.672Z,9.10
2018-03-08T13:12:00.997Z,11.00
2018-03-08T13:13:05.203Z,10.57
2018-03-08T13:14:09.377Z,8.30
2018-03-08T13:15:16.678Z,11.23
2018-03-08T13:16:23.163Z,8.37
2018-03-08T13:17:28.832Z,9.47
2018-03-08T13:18:33.018Z,10.77
2018-03-08T13:19:37.268Z,7.73
2018-03-08T13:20:42.436Z,6.07
2018-03-08T13:21:51.048Z,7.40
2018-03-08T13:22:56.791Z,6.53
2018-03-08T13:24:01.184Z,7.17
2018-03-08T13:25:05.375Z,8.03
2018-03-08T13:26:09.545Z,11.50
2018-03-08T13:27:18.815Z,7.33
2018-03-08T13:28:25.495Z,10.93
2018-03-08T13:29:30.352Z,7.40
2018-03-08T13:30:34.534Z,6.17
2018-03-08T13:31:38.715Z,5.87
2018-03-08T13:32:46.193Z,6.78
2018-03-08T13:33:52.927Z,6.97
2018-03-08T13:34:58.249Z,4.80
2018-03-08T13:36:03.197Z,7.83
2018-03-08T13:37:07.386Z,6.80
2018-03-08T13:38:13.801Z,5.73
2018-03-08T13:39:20.342Z,12.73
2018-03-08T13:40:28.589Z,5.30
2018-03-08T13:41:33.557Z,7.80
2018-03-08T13:42:38.478Z,7.40
2018-03-08T13:43:44.554Z,7.10
2018-03-08T13:44:51.970Z,8.87
2018-03-08T13:45:58.462Z,8.10
2018-03-08T13:47:02.631Z,7.97
2018-03-08T13:48:06.814Z,9.40
2018-03-08T13:49:29.526Z,10.97
2018-03-08T13:50:33.732Z,7.63
2018-03-08T13:51:37.900Z,6.70
2018-03-08T13:52:43.579Z,9.73
2018-03-08T13:53:54.736Z,6.93
2018-03-08T13:55:00.197Z,9.67
2018-03-08T13:56:04.434Z,10.87
2018-03-08T13:57:09.367Z,8.53
2018-03-08T13:58:16.893Z,6.20
2018-03-08T13:59:25.889Z,17.40
2018-03-08T14:00:31.975Z,5.53
2018-03-08T14:01:36.135Z,10.30
2018-03-08T14:02:40.314Z,5.53
2018-03-08T14:03:47.279Z,6.73
2018-03-08T14:04:53.428Z,12.83
2018-03-08T14:05:57.971Z,7.80
2018-03-08T14:07:02.137Z,7.43
2018-03-08T14:08:06.297Z,7.53
2018-03-08T14:09:10.600Z,10.53
2018-03-08T14:10:16.606Z,8.00
2018-03-08T14:11:22.039Z,8.63
2018-03-08T14:12:27.882Z,7.73
2018-03-08T14:13:32.844Z,8.07